Time;durP1;ratioP1;P1;durP2;ratioP2;P2;SDS_P1;SDS_P2;PMS_P1;PMS_P2;Temp;Humidity;BMP_temperature;BMP_pressure;BME280_temperature;BME280_humidity;BME280_pressure;Samples;Min_cycle;Max_cycle;Signal;HPM_P1;HPM_P2
2023/01/24 00:00:20;;;;;;;4.71;4.22;;;;;;;-1.20;60.98;103006.34;449464;118;922570;-72
2023/01/24 00:01:23;;;;;;;5.28;3.98;;;;;;;-1.21;60.97;103003.78;449590;118;922525;-73
2023/01/24 00:02:27;;;;;;;6.08;4.04;;;;;;;-1.22;60.92;103002.04;456747;114;930591;-72
2023/01/24 00:03:30;;;;;;;5.18;4.16;;;;;;;-1.24;60.76;103009.27;457080;116;923000;-72
2023/01/24 00:04:33;;;;;;;4.66;4.24;;;;;;;-1.26;60.75;103006.66;457480;116;922537;-73
2023/01/24 00:05:36;;;;;;;5.39;4.33;;;;;;;-1.27;60.90;103004.95;457517;116;922474;-73
2023/01/24 00:06:40;;;;;;;5.71;4.74;;;;;;;-1.27;60.80;102997.77;457513;114;923041;-72
2023/01/24 00:07:43;;;;;;;4.88;4.09;;;;;;;-1.28;60.86;102998.73;457335;116;922512;-74
2023/01/24 00:08:46;;;;;;;5.42;4.58;;;;;;;-1.29;60.73;102999.67;457168;116;922536;-72
2023/01/24 00:09:49;;;;;;;6.96;4.24;;;;;;;-1.30;60.84;103000.62;449960;117;922616;-72
2023/01/24 00:11:03;;;;;;;5.82;4.48;;;;;;;-1.31;60.73;102998.88;449782;118;922525;-73
2023/01/24 00:12:07;;;;;;;5.19;4.20;;;;;;;-1.32;60.80;103007.84;453173;114;922589;-73
2023/01/24 00:13:12;;;;;;;6.04;4.78;;;;;;;-1.34;60.72;103001.73;455914;116;923130;-72
2023/01/24 00:14:15;;;;;;;4.70;4.26;;;;;;;-1.35;60.78;102999.99;455648;116;923025;-73
2023/01/24 00:15:20;;;;;;;4.49;4.12;;;;;;;-1.36;60.69;103000.06;455166;116;922618;-72
2023/01/24 00:16:24;;;;;;;7.68;4.33;;;;;;;-1.38;60.74;103002.80;455751;116;922850;-71
2023/01/24 00:17:27;;;;;;;5.36;4.51;;;;;;;-1.39;60.74;103001.10;456018;114;923004;-74
2023/01/24 00:18:32;;;;;;;4.69;4.24;;;;;;;-1.38;60.94;103005.48;455826;116;922670;-72
2023/01/24 00:19:37;;;;;;;6.26;4.59;;;;;;;-1.37;60.83;102998.33;454771;115;922514;-73
2023/01/24 00:20:40;;;;;;;4.53;4.04;;;;;;;-1.37;60.93;103007.22;455603;116;922553;-72
2023/01/24 00:21:43;;;;;;;6.37;5.09;;;;;;;-1.37;60.95;103001.00;455650;116;922699;-72
2023/01/24 00:22:46;;;;;;;4.83;4.29;;;;;;;-1.37;60.93;103007.22;453154;116;922433;-72
2023/01/24 00:23:52;;;;;;;5.75;5.17;;;;;;;-1.37;60.80;103001.00;448097;118;922433;-72
2023/01/24 00:24:55;;;;;;;6.16;5.21;;;;;;;-1.37;60.91;103006.34;451041;116;923070;-72
2023/01/24 00:25:58;;;;;;;6.71;5.54;;;;;;;-1.37;60.94;103001.00;451646;117;922433;-73
2023/01/24 00:27:02;;;;;;;5.99;5.44;;;;;;;-1.38;60.89;102993.95;453398;114;922910;-71
2023/01/24 00:28:06;;;;;;;5.99;4.98;;;;;;;-1.39;60.92;102998.42;446937;118;922975;-73
2023/01/24 00:29:09;;;;;;;8.21;6.98;;;;;;;-1.39;60.81;103002.91;445900;117;922586;-73
2023/01/24 00:30:13;;;;;;;7.94;6.28;;;;;;;-1.40;60.94;102993.14;453743;116;922844;-72
2023/01/24 00:31:16;;;;;;;6.94;6.26;;;;;;;-1.39;60.82;102992.20;456232;116;922607;-72
2023/01/24 00:32:19;;;;;;;6.87;6.21;;;;;;;-1.39;60.83;102992.20;454474;114;922261;-72
2023/01/24 00:33:22;;;;;;;7.19;6.61;;;;;;;-1.41;60.79;102989.59;453215;117;922302;-73
2023/01/24 00:34:25;;;;;;;6.31;5.71;;;;;;;-1.42;60.83;102995.89;453273;117;922484;-72
2023/01/24 00:35:29;;;;;;;7.58;5.74;;;;;;;-1.42;60.71;102990.54;456199;115;922322;-71
2023/01/24 00:36:32;;;;;;;7.68;6.89;;;;;;;-1.42;60.74;102989.67;452671;114;922312;-73
2023/01/24 00:37:35;;;;;;;8.30;6.72;;;;;;;-1.42;60.70;102997.70;456321;115;930300;-72
2023/01/24 00:38:38;;;;;;;6.97;6.39;;;;;;;-1.43;60.80;102998.63;453010;117;922215;-72
2023/01/24 00:39:41;;;;;;;7.09;5.92;;;;;;;-1.43;60.69;103002.17;453065;117;922509;-72
2023/01/24 00:40:45;;;;;;;6.61;5.26;;;;;;;-1.43;60.79;103001.31;438328;121;922427;-72
2023/01/24 00:41:48;;;;;;;6.62;5.81;;;;;;;-1.42;60.79;103003.05;440868;116;930311;-71
2023/01/24 00:42:52;;;;;;;6.16;5.52;;;;;;;-1.43;60.69;103007.53;453343;116;930504;-72
2023/01/24 00:43:55;;;;;;;7.15;6.13;;;;;;;-1.42;60.73;103003.91;452956;117;922450;-73
2023/01/24 00:44:58;;;;;;;9.44;6.19;;;;;;;-1.42;60.66;102997.70;453239;116;922447;-73
2023/01/24 00:46:03;;;;;;;6.37;5.79;;;;;;;-1.42;60.76;102997.70;455998;116;922146;-72
2023/01/24 00:47:06;;;;;;;5.76;5.16;;;;;;;-1.42;60.67;102993.22;455317;114;922509;-72
2023/01/24 00:48:10;;;;;;;8.96;6.46;;;;;;;-1.42;60.77;102997.70;456083;116;922596;-72
2023/01/24 00:49:13;;;;;;;7.51;6.22;;;;;;;-1.41;60.77;102994.95;454303;116;922427;-72
2023/01/24 00:50:17;;;;;;;7.34;6.53;;;;;;;-1.42;60.64;102993.22;444151;119;922476;-72
2023/01/24 00:51:20;;;;;;;7.09;5.69;;;;;;;-1.42;60.59;103001.24;445479;118;922947;-72
2023/01/24 00:52:24;;;;;;;6.25;5.62;;;;;;;-1.44;60.66;103000.48;449249;114;930441;-73
2023/01/24 00:53:27;;;;;;;5.66;5.11;;;;;;;-1.43;60.59;102998.63;450933;116;930643;-72
2023/01/24 00:54:31;;;;;;;6.34;5.08;;;;;;;-1.43;60.62;102996.83;452924;117;930453;-72
2023/01/24 00:55:34;;;;;;;6.42;5.34;;;;;;;-1.42;60.64;102995.89;455106;116;922726;-72
2023/01/24 00:56:37;;;;;;;6.83;5.96;;;;;;;-1.42;60.72;102993.22;453831;114;922953;-73
2023/01/24 00:57:41;;;;;;;7.09;5.92;;;;;;;-1.42;60.62;102995.89;449226;116;922965;-73
2023/01/24 00:58:44;;;;;;;6.34;5.74;;;;;;;-1.42;60.68;102995.02;452967;116;922832;-72
2023/01/24 00:59:47;;;;;;;7.01;5.67;;;;;;;-1.44;60.56;102992.45;452805;116;922929;-70
2023/01/24 01:00:50;;;;;;;7.54;6.01;;;;;;;-1.46;60.68;102994.33;455580;115;922485;-72
2023/01/24 01:01:54;;;;;;;8.13;6.87;;;;;;;-1.46;60.53;102997.00;455283;114;922591;-73
2023/01/24 01:02:57;;;;;;;6.90;6.23;;;;;;;-1.46;60.52;102990.78;448095;118;922596;-72
2023/01/24 01:04:00;;;;;;;7.80;7.06;;;;;;;-1.46;60.60;102991.64;448742;116;922603;-72
2023/01/24 01:05:03;;;;;;;8.04;6.44;;;;;;;-1.48;60.60;102985.50;451246;117;922514;-73
2023/01/24 01:06:15;;;;;;;6.88;5.93;;;;;;;-1.47;60.59;102983.69;453659;116;923007;-73
2023/01/24 01:07:20;;;;;;;7.29;6.66;;;;;;;-1.47;60.55;102992.59;455652;114;922655;-72
2023/01/24 01:08:23;;;;;;;7.67;5.71;;;;;;;-1.48;60.52;102988.17;451866;116;923081;-73
2023/01/24 01:09:27;;;;;;;7.58;6.37;;;;;;;-1.48;60.39;102992.66;448476;116;922882;-72
2023/01/24 01:10:30;;;;;;;5.59;4.96;;;;;;;-1.49;60.29;102994.46;449683;116;930602;-72
2023/01/24 01:11:33;;;;;;;6.37;5.74;;;;;;;-1.53;60.22;102989.35;454055;116;922811;-72
2023/01/24 01:12:36;;;;;;;6.67;5.97;;;;;;;-1.56;60.18;102993.06;449418;116;922885;-73
2023/01/24 01:13:40;;;;;;;9.53;6.40;;;;;;;-1.58;60.14;102994.94;448040;118;922677;-72
2023/01/24 01:14:43;;;;;;;7.89;6.92;;;;;;;-1.59;60.27;102989.66;454608;116;922942;-71
2023/01/24 01:15:46;;;;;;;7.57;6.87;;;;;;;-1.60;60.18;102991.50;455547;116;922920;-72
2023/01/24 01:16:49;;;;;;;6.83;6.17;;;;;;;-1.60;60.14;102993.30;452381;116;922677;-71
2023/01/24 01:17:53;;;;;;;7.43;6.04;;;;;;;-1.61;60.27;102996.91;455329;116;923186;-72
2023/01/24 01:18:56;;;;;;;7.91;6.03;;;;;;;-1.62;60.27;102993.38;455010;116;930528;-72
2023/01/24 01:19:59;;;;;;;6.11;5.51;;;;;;;-1.62;60.22;102997.86;455733;116;923008;-73
2023/01/24 01:21:03;;;;;;;6.69;5.99;;;;;;;-1.64;60.15;102989.03;455640;116;922553;-71
2023/01/24 01:22:06;;;;;;;6.95;5.96;;;;;;;-1.65;60.24;102993.51;452894;116;922411;-73
2023/01/24 01:23:09;;;;;;;6.17;5.59;;;;;;;-1.66;60.03;102996.28;448436;116;922856;-72
2023/01/24 01:24:13;;;;;;;5.87;5.44;;;;;;;-1.71;60.11;102986.66;449789;116;922850;-73
2023/01/24 01:25:16;;;;;;;7.36;5.49;;;;;;;-1.73;60.07;102991.23;448036;118;922568;-72
2023/01/24 01:26:21;;;;;;;9.38;6.62;;;;;;;-1.76;60.07;102988.70;449678;116;922857;-72
2023/01/24 01:27:25;;;;;;;6.35;5.71;;;;;;;-1.77;60.19;102991.48;454540;116;922640;-73
2023/01/24 01:28:29;;;;;;;7.63;6.04;;;;;;;-1.80;60.20;102995.16;448044;118;922493;-73
2023/01/24 01:29:33;;;;;;;6.87;6.30;;;;;;;-1.81;60.12;102982.72;448235;116;922581;-72
2023/01/24 01:30:36;;;;;;;7.31;6.27;;;;;;;-1.82;60.28;102985.50;451681;116;930495;-73
2023/01/24 01:31:40;;;;;;;7.48;6.29;;;;;;;-1.82;60.30;102985.50;455498;116;922816;-72
2023/01/24 01:32:43;;;;;;;9.23;7.31;;;;;;;-1.84;60.16;102977.54;455655;116;922924;-72
2023/01/24 01:33:46;;;;;;;9.76;8.80;;;;;;;-1.85;60.26;102986.50;455018;116;930605;-72
2023/01/24 01:34:50;;;;;;;8.03;7.26;;;;;;;-1.87;60.14;102982.16;455201;116;922626;-73
2023/01/24 01:35:53;;;;;;;7.43;6.79;;;;;;;-1.89;60.19;102982.25;455686;116;922463;-72
2023/01/24 01:36:56;;;;;;;7.86;7.09;;;;;;;-1.90;60.17;102982.31;453055;116;922551;-73
2023/01/24 01:37:59;;;;;;;6.91;6.18;;;;;;;-1.90;60.31;102983.19;451661;116;930611;-73
2023/01/24 01:39:03;;;;;;;6.84;5.94;;;;;;;-1.91;60.31;102984.12;449726;116;922556;-72
2023/01/24 01:40:07;;;;;;;6.10;5.53;;;;;;;-1.92;60.16;102986.86;455667;116;922649;-73
2023/01/24 01:41:12;;;;;;;6.13;5.55;;;;;;;-1.93;60.17;102983.32;449774;116;930483;-73
2023/01/24 01:42:16;;;;;;;5.74;5.28;;;;;;;-1.93;60.17;102983.32;452760;115;922538;-72
2023/01/24 01:43:21;;;;;;;6.42;5.55;;;;;;;-1.92;60.21;102984.19;449340;116;922480;-72
2023/01/24 01:44:38;;;;;;;6.16;5.39;;;;;;;-1.93;60.25;102982.48;447803;118;922765;-73
2023/01/24 01:45:48;;;;;;;6.20;5.66;;;;;;;-1.93;60.14;102979.81;449552;116;922665;-73
2023/01/24 01:46:51;;;;;;;7.23;6.47;;;;;;;-1.94;60.26;102983.42;455244;116;922910;-72
2023/01/24 01:47:55;;;;;;;7.18;6.43;;;;;;;-1.95;60.26;102987.03;447843;118;923050;-73
2023/01/24 01:49:02;;;;;;;8.26;5.89;;;;;;;-1.96;60.21;102980.81;447832;116;930990;-73
2023/01/24 01:50:11;;;;;;;7.97;6.29;;;;;;;-1.94;60.27;102992.31;447542;118;922884;-72
2023/01/24 01:51:33;;;;;;;7.17;5.87;;;;;;;-1.93;60.26;102988.67;438653;116;922818;-72
2023/01/24 01:52:40;;;;;;;6.09;5.49;;;;;;;-1.93;60.29;102982.48;454988;116;922599;-73
2023/01/24 01:53:53;;;;;;;6.46;5.60;;;;;;;-1.94;60.21;102976.27;453335;116;922976;-73
2023/01/24 01:55:01;;;;;;;6.54;5.63;;;;;;;-1.94;60.19;102975.40;448741;116;923159;-71
2023/01/24 01:56:11;;;;;;;7.02;5.65;;;;;;;-1.96;60.17;102979.94;431421;120;922641;-71
2023/01/24 01:57:18;;;;;;;9.48;6.02;;;;;;;-1.96;60.15;102985.30;445252;118;922941;-72
2023/01/24 01:58:21;;;;;;;6.70;6.00;;;;;;;-1.96;60.25;102978.14;442154;118;922550;-72
2023/01/24 01:59:31;;;;;;;8.40;5.71;;;;;;;-1.97;60.13;102976.41;441600;120;922615;-71
2023/01/24 02:00:34;;;;;;;7.01;5.90;;;;;;;-1.97;60.10;102981.75;438465;120;922573;-72
2023/01/24 02:01:38;;;;;;;5.08;4.62;;;;;;;-1.98;60.04;102973.80;434630;120;930511;-73
2023/01/24 02:02:52;;;;;;;6.40;5.78;;;;;;;-2.02;59.82;102975.77;432496;119;922536;-72
2023/01/24 02:03:59;;;;;;;5.89;5.13;;;;;;;-2.05;59.88;102978.61;446627;118;923033;-71
2023/01/24 02:05:05;;;;;;;7.02;5.24;;;;;;;-2.08;59.95;102972.52;426536;121;922780;-73
2023/01/24 02:06:15;;;;;;;7.83;5.97;;;;;;;-2.10;59.99;102975.29;437107;121;922433;-72
2023/01/24 02:07:30;;;;;;;7.56;5.47;;;;;;;-2.11;60.07;102976.23;438950;120;922506;-73
2023/01/24 02:08:33;;;;;;;5.36;4.84;;;;;;;-2.12;60.10;102972.69;437352;119;922482;-73
2023/01/24 02:09:39;;;;;;;6.16;5.53;;;;;;;-2.12;60.16;102978.03;438729;119;922520;-71
2023/01/24 02:12:08;;;;;;;6.99;5.09;;;;;;;-2.12;60.15;102972.69;443620;117;922606;-72
2023/01/24 02:13:12;;;;;;;6.94;5.05;;;;;;;-2.11;60.27;102973.55;445888;117;922491;-72
2023/01/24 02:17:05;;;;;;;5.72;5.18;;;;;;;-2.11;60.09;102969.08;447850;117;922915;-72
2023/01/24 02:18:10;;;;;;;5.50;5.00;;;;;;;-2.13;60.13;102975.42;449124;117;922516;-71
2023/01/24 02:19:17;;;;;;;6.82;5.36;;;;;;;-2.17;60.02;102972.05;440737;120;922544;-71
2023/01/24 02:20:26;;;;;;;5.17;4.73;;;;;;;-2.18;60.04;102974.78;446824;118;922491;-72
2023/01/24 02:21:29;;;;;;;6.04;5.11;;;;;;;-2.20;60.09;102972.17;437575;120;922480;-72
2023/01/24 02:22:36;;;;;;;5.47;4.78;;;;;;;-2.20;60.00;102984.67;439697;119;922505;-73
2023/01/24 02:24:19;;;;;;;5.17;4.74;;;;;;;-2.21;60.08;102981.16;441234;120;922605;-70
2023/01/24 02:25:46;;;;;;;5.27;4.57;;;;;;;-2.22;59.94;102983.90;434267;122;923177;-71
2023/01/24 02:26:49;;;;;;;4.73;4.26;;;;;;;-2.27;59.79;102973.44;427916;122;923239;-71
2023/01/24 02:28:01;;;;;;;5.94;4.35;;;;;;;-2.24;59.74;102969.73;480530;110;947097;-72
2023/01/24 02:29:08;;;;;;;7.21;4.60;;;;;;;-2.40;59.76;102984.77;465441;114;922493;-73
2023/01/24 02:30:12;;;;;;;5.31;4.18;;;;;;;-2.45;59.72;102978.78;466505;112;922968;-72
2023/01/24 02:31:15;;;;;;;4.73;4.28;;;;;;;-2.50;59.66;102987.02;471069;112;922662;-73
2023/01/24 02:32:18;;;;;;;9.14;4.73;;;;;;;-2.55;59.61;102981.89;467988;112;930508;-72
2023/01/24 02:33:21;;;;;;;4.71;4.31;;;;;;;-2.58;59.75;102976.67;464730;114;922672;-72
2023/01/24 02:34:25;;;;;;;5.08;4.46;;;;;;;-2.60;59.71;102978.57;455839;116;922484;-73
2023/01/24 02:35:31;;;;;;;6.85;4.46;;;;;;;-2.61;59.71;102976.84;459538;114;930595;-71
2023/01/24 02:36:37;;;;;;;5.27;4.56;;;;;;;-2.63;59.81;102977.83;463163;114;922493;-72
2023/01/24 02:37:41;;;;;;;4.86;4.29;;;;;;;-2.63;59.87;102983.17;462080;114;922599;-72
2023/01/24 02:38:49;;;;;;;5.88;4.92;;;;;;;-2.65;59.84;102980.59;464030;113;922554;-72
2023/01/24 02:40:05;;;;;;;5.47;4.56;;;;;;;-2.64;60.07;102974.29;462337;114;922916;-71
2023/01/24 02:41:09;;;;;;;5.38;4.46;;;;;;;-2.63;60.00;102983.17;453143;116;922959;-72
2023/01/24 02:42:15;;;;;;;6.26;4.51;;;;;;;-2.62;60.15;102985.78;454958;114;922695;-72
2023/01/24 02:43:22;;;;;;;6.03;4.51;;;;;;;-2.62;60.03;102975.09;464117;114;923022;-72
2023/01/24 02:45:00;;;;;;;7.36;4.75;;;;;;;-2.61;60.22;102979.50;463058;114;922988;-73
2023/01/24 02:46:03;;;;;;;5.83;4.39;;;;;;;-2.58;60.28;102978.48;462194;114;922675;-73
2023/01/24 02:47:07;;;;;;;4.94;4.44;;;;;;;-2.57;60.20;102978.41;463562;114;922586;-72
2023/01/24 02:48:10;;;;;;;4.87;4.33;;;;;;;-2.55;60.28;102978.35;465585;114;930406;-73
2023/01/24 02:49:13;;;;;;;9.22;4.46;;;;;;;-2.57;60.08;102972.20;464024;114;923008;-72
2023/01/24 02:50:18;;;;;;;5.14;4.59;;;;;;;-2.58;60.19;102975.80;461387;114;922535;-73
2023/01/24 02:54:04;;;;;;;5.03;4.57;;;;;;;-2.57;60.18;102977.55;462211;114;923391;-72
2023/01/24 02:55:07;;;;;;;7.33;4.71;;;;;;;-2.57;60.08;102980.22;464244;114;922523;-73
2023/01/24 02:58:55;;;;;;;6.83;5.33;;;;;;;-2.58;60.15;102981.15;458956;114;922926;-72
2023/01/24 02:59:59;;;;;;;6.84;5.53;;;;;;;-2.58;60.00;102976.67;454533;116;922611;-73
2023/01/24 03:01:02;;;;;;;6.44;5.21;;;;;;;-2.58;60.07;102975.80;455709;114;930637;-73
2023/01/24 03:02:06;;;;;;;6.21;5.39;;;;;;;-2.58;60.08;102981.15;463899;113;930707;-73
2023/01/24 03:03:09;;;;;;;6.51;5.47;;;;;;;-2.58;60.00;102979.34;464435;114;922604;-72
2023/01/24 03:04:13;;;;;;;8.01;5.09;;;;;;;-2.56;60.10;102979.28;464242;114;922452;-72
2023/01/24 03:05:16;;;;;;;6.01;4.74;;;;;;;-2.55;60.01;102981.02;461142;114;922781;-72
2023/01/24 03:06:20;;;;;;;5.39;4.76;;;;;;;-2.53;60.06;102981.80;465603;114;922412;-71
2023/01/24 03:07:23;;;;;;;6.14;5.35;;;;;;;-2.53;59.95;102977.33;463252;113;922582;-73
2023/01/24 03:08:30;;;;;;;5.47;4.97;;;;;;;-2.53;59.93;102979.13;462118;114;922483;-72
2023/01/24 03:09:34;;;;;;;6.08;5.06;;;;;;;-2.50;59.97;102984.34;454646;116;922585;-72
2023/01/24 03:10:38;;;;;;;5.18;4.40;;;;;;;-2.49;60.07;102983.41;455274;114;922542;-73
2023/01/24 03:11:42;;;;;;;5.53;4.96;;;;;;;-2.48;59.93;102981.61;462805;113;922678;-72
2023/01/24 03:34:45;;;;;;;5.92;3.98;;;;;;;-2.70;59.85;102981.75;451959;116;922813;-75
2023/01/24 03:35:41;;;;;;;5.29;3.94;;;;;;;-2.72;59.79;102980.94;457947;114;922497;-73
2023/01/24 03:36:45;;;;;;;8.13;4.86;;;;;;;-2.73;59.71;102979.20;457941;113;922594;-73
2023/01/24 03:40:35;;;;;;;5.99;3.55;;;;;;;-2.77;59.67;102975.81;460523;114;922997;-72
2023/01/24 03:41:38;;;;;;;5.29;3.97;;;;;;;-2.81;59.53;102978.70;460382;114;922896;-74
2023/01/24 03:42:47;;;;;;;5.26;3.93;;;;;;;-2.83;59.43;102969.88;460966;114;922786;-74
2023/01/24 03:43:52;;;;;;;4.33;3.93;;;;;;;-2.88;59.22;102975.44;458815;114;922881;-74
2023/01/24 03:44:55;;;;;;;8.04;4.17;;;;;;;-2.92;59.36;102979.16;457544;116;930505;-74
2023/01/24 03:45:59;;;;;;;6.10;4.52;;;;;;;-2.92;59.43;102975.66;458893;114;922557;-73
2023/01/24 03:47:16;;;;;;;5.97;4.83;;;;;;;-2.93;59.51;102974.78;458314;113;922453;-74
2023/01/24 03:48:26;;;;;;;7.78;6.59;;;;;;;-2.92;59.56;102981.83;453746;117;922570;-72
2023/01/24 03:52:30;;;;;;;13.39;11.12;;;;;;;-2.89;59.82;102981.70;451058;117;923398;-72
2023/01/24 03:53:31;;;;;;;15.51;13.73;;;;;;;-2.88;59.90;102977.23;448937;114;922707;-73
2023/01/24 03:54:34;;;;;;;14.06;12.69;;;;;;;-2.87;59.89;102979.84;462640;114;922878;-74
2023/01/24 03:55:39;;;;;;;13.72;12.42;;;;;;;-2.85;59.92;102977.95;458127;113;922575;-73
2023/01/24 03:56:44;;;;;;;12.23;11.06;;;;;;;-2.84;60.00;102987.70;459318;113;922400;-74
2023/01/24 03:57:47;;;;;;;11.53;10.44;;;;;;;-2.82;59.93;102982.30;459466;115;922496;-73
2023/01/24 03:58:53;;;;;;;11.18;10.07;;;;;;;-2.80;59.92;102983.95;457829;115;922537;-73
2023/01/24 03:59:57;;;;;;;9.95;8.95;;;;;;;-2.78;59.92;102973.20;460685;115;922514;-72
2023/01/24 04:01:01;;;;;;;10.62;9.13;;;;;;;-2.76;59.98;102987.36;460565;115;930618;-73
2023/01/24 04:02:12;;;;;;;7.74;6.96;;;;;;;-2.74;59.87;102980.13;458052;113;930577;-73
2023/01/24 04:03:15;;;;;;;7.59;6.41;;;;;;;-2.74;59.93;102981.00;462325;114;922536;-73
2023/01/24 04:04:18;;;;;;;7.71;5.64;;;;;;;-2.74;59.81;102974.79;462906;114;923073;-74
2023/01/24 04:05:21;;;;;;;5.31;4.63;;;;;;;-2.73;59.90;102973.86;461010;114;922782;-73
2023/01/24 04:06:25;;;;;;;5.60;4.86;;;;;;;-2.72;59.87;102978.27;451959;116;922602;-75
2023/01/24 04:07:29;;;;;;;5.64;5.19;;;;;;;-2.74;59.70;102970.32;452133;115;922603;-73
2023/01/24 04:08:34;;;;;;;5.15;4.66;;;;;;;-2.75;59.67;102979.26;460781;114;930587;-72
2023/01/24 04:09:37;;;;;;;5.12;4.66;;;;;;;-2.75;59.66;102981.06;460828;115;922564;-72
2023/01/24 04:10:41;;;;;;;6.34;5.69;;;;;;;-2.77;59.61;102977.62;461350;114;922504;-72
2023/01/24 04:11:44;;;;;;;5.88;4.57;;;;;;;-2.78;59.60;102983.89;454121;116;930346;-74
2023/01/24 04:12:49;;;;;;;5.36;4.76;;;;;;;-2.80;59.48;102985.75;452830;115;922884;-74
2023/01/24 04:13:53;;;;;;;5.45;4.04;;;;;;;-2.79;59.48;102982.14;460113;114;922503;-73
2023/01/24 04:14:57;;;;;;;4.61;4.06;;;;;;;-2.79;59.63;102984.81;461581;114;922537;-72
2023/01/24 04:16:01;;;;;;;4.45;4.01;;;;;;;-2.77;59.53;102988.30;458706;114;922462;-73
2023/01/24 04:17:06;;;;;;;4.52;4.11;;;;;;;-2.77;59.67;102990.97;458050;113;930487;-74
2023/01/24 04:18:14;;;;;;;4.44;3.99;;;;;;;-2.77;59.62;102986.49;458204;114;922889;-74
2023/01/24 04:19:17;;;;;;;5.09;4.14;;;;;;;-2.76;59.63;102984.69;453099;117;922833;-73
2023/01/24 04:20:20;;;;;;;5.72;3.99;;;;;;;-2.77;59.59;102975.81;459039;115;923489;-74
2023/01/24 04:21:27;;;;;;;5.19;4.01;;;;;;;-2.77;59.54;102983.83;461650;114;922541;-73
2023/01/24 04:22:30;;;;;;;6.53;3.81;;;;;;;-2.76;59.59;102984.69;458089;113;922941;-72
2023/01/24 04:23:33;;;;;;;5.19;3.90;;;;;;;-2.77;59.46;102989.16;457614;116;922513;-74
2023/01/24 04:24:37;;;;;;;3.95;3.58;;;;;;;-2.77;59.55;102986.49;459772;114;922874;-72
2023/01/24 04:25:40;;;;;;;4.40;3.67;;;;;;;-2.76;59.53;102987.36;461652;114;923353;-72
2023/01/24 04:26:44;;;;;;;3.47;3.18;;;;;;;-2.75;59.55;102981.06;461137;113;922537;-73
2023/01/24 04:27:49;;;;;;;4.61;3.91;;;;;;;-2.75;59.37;102986.40;459996;114;922866;-73
2023/01/24 04:28:54;;;;;;;4.59;3.83;;;;;;;-2.76;59.34;102988.23;459201;115;922587;-73
2023/01/24 04:29:57;;;;;;;4.71;3.90;;;;;;;-2.76;59.45;102985.56;461718;115;922780;-73
2023/01/24 04:31:02;;;;;;;5.26;3.47;;;;;;;-2.74;59.40;102988.14;459785;115;922866;-71
2023/01/24 04:32:23;;;;;;;7.17;3.84;;;;;;;-2.75;59.39;102986.40;460719;113;922805;-73
2023/01/24 04:33:34;;;;;;;;;;;;;;;-2.74;59.40;102982.80;463456;115;922098;-74
2023/01/24 04:34:39;;;;;;;4.64;3.44;;;;;;;-2.76;59.34;102974.02;461615;115;922277;-74
2023/01/24 04:35:44;;;;;;;4.38;3.98;;;;;;;-2.79;59.48;102985.69;461056;115;930452;-72
2023/01/24 04:36:47;;;;;;;4.39;3.96;;;;;;;-2.80;59.52;102985.75;461473;113;922642;-73
2023/01/24 04:37:51;;;;;;;5.79;3.72;;;;;;;-2.83;59.50;102980.56;459273;115;922944;-71
2023/01/24 04:38:55;;;;;;;5.80;3.98;;;;;;;-2.83;59.57;102985.91;455309;115;922576;-73
2023/01/24 04:40:01;;;;;;;6.18;5.33;;;;;;;-2.82;59.54;102992.98;461045;115;922902;-73
2023/01/24 04:41:05;;;;;;;9.52;5.78;;;;;;;-2.82;59.56;102987.64;451939;117;922676;-72
2023/01/24 04:42:10;;;;;;;8.21;5.73;;;;;;;-2.81;59.31;102986.71;452329;115;922659;-71
2023/01/24 04:43:15;;;;;;;11.78;7.96;;;;;;;-2.82;59.35;102992.98;457633;115;922458;-72
2023/01/24 04:44:20;;;;;;;9.75;8.26;;;;;;;-2.82;59.38;102992.98;461662;115;922457;-73
2023/01/24 04:45:24;;;;;;;10.44;9.01;;;;;;;-2.83;59.25;102997.45;455544;115;922733;-73
2023/01/24 04:46:28;;;;;;;10.28;8.84;;;;;;;-2.82;59.25;102993.84;451279;117;922951;-73
2023/01/24 04:47:32;;;;;;;14.04;11.14;;;;;;;-2.82;59.27;102988.51;452710;115;922541;-72
2023/01/24 04:48:35;;;;;;;17.02;12.48;;;;;;;-2.81;59.37;102994.72;457073;115;922817;-73
2023/01/24 04:49:38;;;;;;;24.37;14.23;;;;;;;-2.81;59.23;102998.23;456654;115;922754;-73
2023/01/24 04:50:42;;;;;;;18.57;13.98;;;;;;;-2.79;59.32;102999.03;456575;116;922569;-73
2023/01/24 04:51:50;;;;;;;19.39;13.05;;;;;;;-2.79;59.23;102999.03;457509;113;922615;-73
2023/01/24 04:52:55;;;;;;;23.56;14.71;;;;;;;-2.78;59.28;103002.58;460489;115;922766;-71
2023/01/24 04:53:58;;;;;;;22.16;15.62;;;;;;;-2.77;59.29;103002.52;450544;117;922546;-72
2023/01/24 04:55:02;;;;;;;13.63;11.86;;;;;;;-2.76;59.14;103000.72;451944;114;922950;-73
2023/01/24 04:56:06;;;;;;;13.19;10.98;;;;;;;-2.78;59.13;102995.44;451676;117;922500;-73
2023/01/24 04:57:11;;;;;;;17.24;11.95;;;;;;;-2.78;59.24;103000.77;458941;113;930421;-73
2023/01/24 04:58:15;;;;;;;11.99;10.72;;;;;;;-2.77;59.28;102986.49;453163;117;922630;-73
2023/01/24 04:59:18;;;;;;;10.82;9.47;;;;;;;-2.76;59.29;102985.56;453985;115;923002;-74
2023/01/24 05:00:22;;;;;;;14.91;9.73;;;;;;;-2.74;59.26;103001.48;461554;115;923422;-74
2023/01/24 05:01:25;;;;;;;11.08;7.87;;;;;;;-2.74;59.26;103001.48;461730;115;930052;-72
2023/01/24 05:02:32;;;;;;;7.35;6.55;;;;;;;-2.74;59.27;102998.81;460826;113;922968;-72
2023/01/24 05:03:36;;;;;;;7.27;6.54;;;;;;;-2.73;59.19;103004.09;459594;115;922862;-73
2023/01/24 05:04:39;;;;;;;7.67;6.11;;;;;;;-2.71;59.27;103009.37;457287;115;922475;-74
2023/01/24 05:05:42;;;;;;;6.12;5.53;;;;;;;-2.71;59.16;103007.58;461837;115;922479;-74
2023/01/24 05:06:45;;;;;;;6.24;5.64;;;;;;;-2.70;59.11;103011.95;461323;114;922819;-73
2023/01/24 05:07:49;;;;;;;6.72;4.63;;;;;;;-2.68;59.09;103019.91;458327;115;922593;-72
2023/01/24 05:08:54;;;;;;;4.78;4.19;;;;;;;-2.69;59.18;103016.36;458633;114;922626;-71
2023/01/24 05:09:59;;;;;;;4.79;4.07;;;;;;;-2.70;59.05;103011.95;459837;115;930550;-72
2023/01/24 05:11:03;;;;;;;6.26;4.69;;;;;;;-2.70;59.03;103019.13;450638;117;922891;-72
2023/01/24 05:12:08;;;;;;;5.73;4.74;;;;;;;-2.72;59.04;103018.31;452360;115;922652;-71
2023/01/24 05:13:11;;;;;;;5.84;4.00;;;;;;;-2.73;59.19;103022.79;461888;115;922584;-72
2023/01/24 05:14:14;;;;;;;7.58;3.89;;;;;;;-2.73;59.20;103022.79;461204;115;922563;-73
2023/01/24 05:15:19;;;;;;;4.18;3.76;;;;;;;-2.73;59.16;103025.45;461880;115;922557;-73
2023/01/24 05:16:22;;;;;;;4.55;3.58;;;;;;;-2.72;59.26;103021.86;461633;115;922593;-74
2023/01/24 05:17:26;;;;;;;5.47;3.52;;;;;;;-2.70;59.14;103035.14;452816;115;922604;-74
2023/01/24 05:18:30;;;;;;;5.09;3.66;;;;;;;-2.70;59.09;103027.14;453666;115;922603;-73
2023/01/24 05:19:33;;;;;;;8.17;3.81;;;;;;;-2.70;59.03;103025.30;459914;114;922518;-72
2023/01/24 05:20:37;;;;;;;4.67;4.12;;;;;;;-2.69;59.14;103021.70;459665;115;930500;-73
2023/01/24 05:21:40;;;;;;;5.40;4.48;;;;;;;-2.68;59.16;103025.24;454562;115;922604;-76
2023/01/24 05:22:46;;;;;;;5.26;3.81;;;;;;;-2.71;59.00;103023.59;461842;115;922520;-71
2023/01/24 05:23:51;;;;;;;6.85;4.43;;;;;;;-2.70;58.97;103027.97;452090;117;922783;-71
2023/01/24 05:24:54;;;;;;;10.03;4.53;;;;;;;-2.71;59.05;103036.08;445979;117;922739;-73
2023/01/24 05:26:01;;;;;;;6.41;4.76;;;;;;;-2.72;58.96;103037.88;453564;115;922584;-73
2023/01/24 05:27:05;;;;;;;4.56;4.04;;;;;;;-2.71;58.98;103034.28;461259;115;922992;-71
2023/01/24 05:28:09;;;;;;;6.71;4.65;;;;;;;-2.71;59.08;103028.06;461805;115;922767;-72
2023/01/24 05:29:14;;;;;;;9.29;4.40;;;;;;;-2.70;58.97;103038.66;465018;114;922856;-71
2023/01/24 05:30:17;;;;;;;9.68;4.56;;;;;;;-2.70;59.10;103029.81;449063;116;923076;-71
2023/01/24 05:31:21;;;;;;;5.66;4.65;;;;;;;-2.68;58.99;103038.59;440070;118;922679;-71
2023/01/24 05:32:24;;;;;;;10.71;4.54;;;;;;;-2.68;58.95;103027.91;454841;114;922589;-72
2023/01/24 05:33:28;;;;;;;6.60;4.74;;;;;;;-2.67;59.03;103040.34;455644;116;922620;-70
2023/01/24 05:34:31;;;;;;;7.20;4.99;;;;;;;-2.69;59.00;103034.19;452454;115;923075;-72
2023/01/24 05:35:34;;;;;;;6.30;4.73;;;;;;;-2.68;58.88;103038.59;461701;114;930612;-71